sensor_id;sensor_type;location;lat;lon;timestamp;P1;durP1;ratioP1;P2;durP2;ratioP2
18657;SDS011;9458;50.942;5.074;2023-04-03T00:01:55;7.97;;;5.20;;
18657;SDS011;9458;50.942;5.074;2023-04-03T00:04:33;5.93;;;4.63;;
18657;SDS011;9458;50.942;5.074;2023-04-03T00:07:01;6.60;;;4.73;;
18657;SDS011;9458;50.942;5.074;2023-04-03T00:09:33;8.50;;;4.73;;
18657;SDS011;9458;50.942;5.074;2023-04-03T00:12:14;5.93;;;4.60;;
18657;SDS011;9458;50.942;5.074;2023-04-03T00:15:01;5.23;;;4.60;;
18657;SDS011;9458;50.942;5.074;2023-04-03T00:17:35;6.47;;;4.67;;
18657;SDS011;9458;50.942;5.074;2023-04-03T00:20:05;7.27;;;5.17;;
18657;SDS011;9458;50.942;5.074;2023-04-03T00:22:41;8.77;;;4.90;;
18657;SDS011;9458;50.942;5.074;2023-04-03T00:25:13;9.17;;;5.07;;
18657;SDS011;9458;50.942;5.074;2023-04-03T00:27:43;7.67;;;4.90;;
18657;SDS011;9458;50.942;5.074;2023-04-03T00:30:13;8.33;;;4.90;;
18657;SDS011;9458;50.942;5.074;2023-04-03T00:32:43;5.73;;;4.70;;
18657;SDS011;9458;50.942;5.074;2023-04-03T00:35:13;6.87;;;4.73;;
18657;SDS011;9458;50.942;5.074;2023-04-03T00:37:42;6.77;;;5.03;;
18657;SDS011;9458;50.942;5.074;2023-04-03T00:40:13;8.93;;;5.03;;
18657;SDS011;9458;50.942;5.074;2023-04-03T00:42:44;7.00;;;4.97;;
18657;SDS011;9458;50.942;5.074;2023-04-03T00:45:22;6.00;;;4.50;;
18657;SDS011;9458;50.942;5.074;2023-04-03T00:47:53;6.07;;;4.93;;
18657;SDS011;9458;50.942;5.074;2023-04-03T00:50:23;6.83;;;4.87;;
18657;SDS011;9458;50.942;5.074;2023-04-03T00:52:52;6.47;;;5.23;;
18657;SDS011;9458;50.942;5.074;2023-04-03T00:55:22;8.87;;;5.03;;
18657;SDS011;9458;50.942;5.074;2023-04-03T00:57:52;7.53;;;4.90;;
18657;SDS011;9458;50.942;5.074;2023-04-03T01:00:22;6.07;;;4.80;;
18657;SDS011;9458;50.942;5.074;2023-04-03T01:02:55;7.10;;;4.80;;
18657;SDS011;9458;50.942;5.074;2023-04-03T01:05:24;6.10;;;4.73;;
18657;SDS011;9458;50.942;5.074;2023-04-03T01:07:53;5.97;;;4.37;;
18657;SDS011;9458;50.942;5.074;2023-04-03T01:10:25;7.87;;;4.63;;
18657;SDS011;9458;50.942;5.074;2023-04-03T01:12:55;5.80;;;5.00;;
18657;SDS011;9458;50.942;5.074;2023-04-03T01:15:24;7.17;;;4.70;;
18657;SDS011;9458;50.942;5.074;2023-04-03T01:17:57;6.63;;;5.40;;
18657;SDS011;9458;50.942;5.074;2023-04-03T01:20:49;6.63;;;5.10;;
18657;SDS011;9458;50.942;5.074;2023-04-03T01:23:50;6.83;;;4.80;;
18657;SDS011;9458;50.942;5.074;2023-04-03T01:26:38;8.43;;;5.43;;
18657;SDS011;9458;50.942;5.074;2023-04-03T01:29:09;6.53;;;4.33;;
18657;SDS011;9458;50.942;5.074;2023-04-03T01:31:47;7.47;;;5.37;;
18657;SDS011;9458;50.942;5.074;2023-04-03T01:34:25;8.67;;;5.20;;
18657;SDS011;9458;50.942;5.074;2023-04-03T01:37:03;7.20;;;5.57;;
18657;SDS011;9458;50.942;5.074;2023-04-03T01:39:40;5.83;;;4.90;;
18657;SDS011;9458;50.942;5.074;2023-04-03T01:42:08;6.97;;;5.57;;
18657;SDS011;9458;50.942;5.074;2023-04-03T01:44:38;9.13;;;5.70;;
18657;SDS011;9458;50.942;5.074;2023-04-03T01:47:07;5.70;;;5.00;;
18657;SDS011;9458;50.942;5.074;2023-04-03T01:49:34;7.27;;;5.50;;
18657;SDS011;9458;50.942;5.074;2023-04-03T01:52:02;7.20;;;5.43;;
18657;SDS011;9458;50.942;5.074;2023-04-03T01:54:35;6.33;;;4.80;;
18657;SDS011;9458;50.942;5.074;2023-04-03T01:57:03;9.60;;;5.30;;
18657;SDS011;9458;50.942;5.074;2023-04-03T01:59:32;5.53;;;5.00;;
18657;SDS011;9458;50.942;5.074;2023-04-03T02:02:00;7.50;;;5.30;;
18657;SDS011;9458;50.942;5.074;2023-04-03T02:04:33;6.50;;;5.27;;
18657;SDS011;9458;50.942;5.074;2023-04-03T02:07:03;6.73;;;5.50;;
18657;SDS011;9458;50.942;5.074;2023-04-03T02:09:32;9.33;;;5.33;;
18657;SDS011;9458;50.942;5.074;2023-04-03T02:12:04;6.40;;;5.10;;
18657;SDS011;9458;50.942;5.074;2023-04-03T02:14:43;6.20;;;5.23;;
18657;SDS011;9458;50.942;5.074;2023-04-03T02:17:20;9.10;;;5.63;;
18657;SDS011;9458;50.942;5.074;2023-04-03T02:19:58;7.87;;;5.43;;
18657;SDS011;9458;50.942;5.074;2023-04-03T02:22:34;7.63;;;5.27;;
18657;SDS011;9458;50.942;5.074;2023-04-03T02:25:04;9.07;;;5.30;;
18657;SDS011;9458;50.942;5.074;2023-04-03T02:27:33;9.93;;;5.70;;
18657;SDS011;9458;50.942;5.074;2023-04-03T02:30:03;7.60;;;5.73;;
18657;SDS011;9458;50.942;5.074;2023-04-03T02:32:33;7.90;;;5.37;;
18657;SDS011;9458;50.942;5.074;2023-04-03T02:35:07;9.83;;;5.77;;
18657;SDS011;9458;50.942;5.074;2023-04-03T02:37:39;7.13;;;5.63;;
18657;SDS011;9458;50.942;5.074;2023-04-03T02:40:10;7.20;;;5.70;;
18657;SDS011;9458;50.942;5.074;2023-04-03T02:42:38;10.17;;;6.10;;
18657;SDS011;9458;50.942;5.074;2023-04-03T02:45:07;10.80;;;6.43;;
18657;SDS011;9458;50.942;5.074;2023-04-03T02:47:35;7.83;;;6.03;;
18657;SDS011;9458;50.942;5.074;2023-04-03T02:50:02;9.53;;;6.00;;
18657;SDS011;9458;50.942;5.074;2023-04-03T02:52:34;8.37;;;5.57;;
18657;SDS011;9458;50.942;5.074;2023-04-03T02:55:01;7.23;;;6.10;;
18657;SDS011;9458;50.942;5.074;2023-04-03T02:57:30;9.00;;;6.33;;
18657;SDS011;9458;50.942;5.074;2023-04-03T02:59:59;7.77;;;6.53;;
18657;SDS011;9458;50.942;5.074;2023-04-03T03:02:34;7.17;;;6.13;;
18657;SDS011;9458;50.942;5.074;2023-04-03T03:05:05;7.30;;;6.13;;
18657;SDS011;9458;50.942;5.074;2023-04-03T03:07:36;9.83;;;6.67;;
18657;SDS011;9458;50.942;5.074;2023-04-03T03:10:05;8.07;;;6.20;;
18657;SDS011;9458;50.942;5.074;2023-04-03T03:12:35;9.20;;;6.37;;
18657;SDS011;9458;50.942;5.074;2023-04-03T03:15:02;11.03;;;6.40;;
18657;SDS011;9458;50.942;5.074;2023-04-03T03:17:31;8.43;;;5.80;;
18657;SDS011;9458;50.942;5.074;2023-04-03T03:20:01;8.13;;;5.80;;
18657;SDS011;9458;50.942;5.074;2023-04-03T03:22:30;6.83;;;5.67;;
18657;SDS011;9458;50.942;5.074;2023-04-03T03:25:00;10.47;;;6.50;;
18657;SDS011;9458;50.942;5.074;2023-04-03T03:27:29;7.57;;;6.33;;
18657;SDS011;9458;50.942;5.074;2023-04-03T03:29:58;9.60;;;6.27;;
18657;SDS011;9458;50.942;5.074;2023-04-03T03:32:26;8.30;;;5.90;;
18657;SDS011;9458;50.942;5.074;2023-04-03T03:34:54;9.33;;;5.87;;
18657;SDS011;9458;50.942;5.074;2023-04-03T03:37:22;9.20;;;5.73;;
18657;SDS011;9458;50.942;5.074;2023-04-03T03:39:50;10.67;;;6.67;;
18657;SDS011;9458;50.942;5.074;2023-04-03T03:42:19;7.30;;;5.97;;
18657;SDS011;9458;50.942;5.074;2023-04-03T03:44:48;8.63;;;6.17;;
18657;SDS011;9458;50.942;5.074;2023-04-03T03:47:17;10.43;;;6.60;;
18657;SDS011;9458;50.942;5.074;2023-04-03T03:49:44;8.77;;;6.37;;
18657;SDS011;9458;50.942;5.074;2023-04-03T03:52:13;9.60;;;6.53;;
18657;SDS011;9458;50.942;5.074;2023-04-03T03:54:41;11.23;;;6.80;;
18657;SDS011;9458;50.942;5.074;2023-04-03T03:57:09;8.30;;;6.67;;
18657;SDS011;9458;50.942;5.074;2023-04-03T03:59:38;10.53;;;7.37;;
18657;SDS011;9458;50.942;5.074;2023-04-03T04:02:07;8.80;;;7.03;;
18657;SDS011;9458;50.942;5.074;2023-04-03T04:04:36;9.07;;;6.80;;
18657;SDS011;9458;50.942;5.074;2023-04-03T04:07:03;8.70;;;7.67;;
18657;SDS011;9458;50.942;5.074;2023-04-03T04:09:32;10.30;;;6.93;;
18657;SDS011;9458;50.942;5.074;2023-04-03T04:11:59;9.00;;;7.30;;
18657;SDS011;9458;50.942;5.074;2023-04-03T04:14:27;10.20;;;7.10;;
18657;SDS011;9458;50.942;5.074;2023-04-03T04:16:57;10.93;;;7.47;;
18657;SDS011;9458;50.942;5.074;2023-04-03T04:19:24;9.33;;;6.80;;
18657;SDS011;9458;50.942;5.074;2023-04-03T04:21:52;10.80;;;7.47;;
18657;SDS011;9458;50.942;5.074;2023-04-03T04:24:21;9.97;;;6.97;;
18657;SDS011;9458;50.942;5.074;2023-04-03T04:26:49;9.70;;;7.00;;
18657;SDS011;9458;50.942;5.074;2023-04-03T04:29:17;11.10;;;7.40;;
18657;SDS011;9458;50.942;5.074;2023-04-03T04:31:45;8.53;;;6.60;;
18657;SDS011;9458;50.942;5.074;2023-04-03T04:34:15;8.07;;;6.90;;
18657;SDS011;9458;50.942;5.074;2023-04-03T04:36:44;11.97;;;7.43;;
18657;SDS011;9458;50.942;5.074;2023-04-03T04:39:12;10.00;;;7.30;;
18657;SDS011;9458;50.942;5.074;2023-04-03T04:41:40;11.30;;;7.83;;
18657;SDS011;9458;50.942;5.074;2023-04-03T04:44:08;10.77;;;7.07;;
18657;SDS011;9458;50.942;5.074;2023-04-03T04:46:36;10.47;;;7.00;;
18657;SDS011;9458;50.942;5.074;2023-04-03T04:49:05;11.83;;;7.87;;
18657;SDS011;9458;50.942;5.074;2023-04-03T04:51:33;10.57;;;7.27;;
18657;SDS011;9458;50.942;5.074;2023-04-03T04:54:02;12.30;;;9.10;;
18657;SDS011;9458;50.942;5.074;2023-04-03T04:56:32;10.83;;;8.00;;
18657;SDS011;9458;50.942;5.074;2023-04-03T04:59:00;11.73;;;8.33;;
18657;SDS011;9458;50.942;5.074;2023-04-03T05:01:28;11.43;;;8.13;;
18657;SDS011;9458;50.942;5.074;2023-04-03T05:03:56;10.50;;;8.03;;
18657;SDS011;9458;50.942;5.074;2023-04-03T05:06:24;11.47;;;8.93;;
18657;SDS011;9458;50.942;5.074;2023-04-03T05:08:54;9.63;;;8.00;;
18657;SDS011;9458;50.942;5.074;2023-04-03T05:11:22;10.40;;;7.93;;
18657;SDS011;9458;50.942;5.074;2023-04-03T05:13:51;8.83;;;7.80;;
18657;SDS011;9458;50.942;5.074;2023-04-03T05:16:24;12.07;;;8.57;;
18657;SDS011;9458;50.942;5.074;2023-04-03T05:18:52;11.47;;;8.63;;
18657;SDS011;9458;50.942;5.074;2023-04-03T05:21:20;13.40;;;9.63;;
18657;SDS011;9458;50.942;5.074;2023-04-03T05:23:51;15.03;;;9.90;;
18657;SDS011;9458;50.942;5.074;2023-04-03T05:26:20;13.93;;;9.87;;
18657;SDS011;9458;50.942;5.074;2023-04-03T05:28:48;14.40;;;10.20;;
18657;SDS011;9458;50.942;5.074;2023-04-03T05:31:16;13.33;;;10.17;;
18657;SDS011;9458;50.942;5.074;2023-04-03T05:33:44;13.23;;;9.33;;
18657;SDS011;9458;50.942;5.074;2023-04-03T05:36:13;12.67;;;9.63;;
18657;SDS011;9458;50.942;5.074;2023-04-03T05:38:41;15.93;;;10.03;;
18657;SDS011;9458;50.942;5.074;2023-04-03T05:41:11;11.00;;;9.13;;
18657;SDS011;9458;50.942;5.074;2023-04-03T05:43:41;11.70;;;9.43;;
18657;SDS011;9458;50.942;5.074;2023-04-03T05:46:10;12.17;;;9.17;;
18657;SDS011;9458;50.942;5.074;2023-04-03T05:48:40;14.10;;;10.03;;
18657;SDS011;9458;50.942;5.074;2023-04-03T05:51:09;14.20;;;10.83;;
18657;SDS011;9458;50.942;5.074;2023-04-03T05:53:42;15.03;;;10.27;;
18657;SDS011;9458;50.942;5.074;2023-04-03T05:56:13;11.53;;;8.67;;
18657;SDS011;9458;50.942;5.074;2023-04-03T05:58:43;15.60;;;9.77;;
18657;SDS011;9458;50.942;5.074;2023-04-03T06:01:11;14.23;;;9.33;;
18657;SDS011;9458;50.942;5.074;2023-04-03T06:03:44;11.30;;;8.47;;
18657;SDS011;9458;50.942;5.074;2023-04-03T06:06:17;9.80;;;7.83;;
18657;SDS011;9458;50.942;5.074;2023-04-03T06:08:47;8.30;;;7.33;;
18657;SDS011;9458;50.942;5.074;2023-04-03T06:11:16;12.18;;;7.55;;
18657;SDS011;9458;50.942;5.074;2023-04-03T06:13:48;11.70;;;8.32;;
18657;SDS011;9458;50.942;5.074;2023-04-03T06:16:17;9.73;;;7.78;;
18657;SDS011;9458;50.942;5.074;2023-04-03T06:18:47;12.55;;;7.97;;
18657;SDS011;9458;50.942;5.074;2023-04-03T06:21:15;8.82;;;7.93;;
18657;SDS011;9458;50.942;5.074;2023-04-03T06:23:44;9.13;;;6.93;;
18657;SDS011;9458;50.942;5.074;2023-04-03T06:26:12;8.65;;;7.20;;
18657;SDS011;9458;50.942;5.074;2023-04-03T06:28:42;8.02;;;6.65;;
18657;SDS011;9458;50.942;5.074;2023-04-03T06:31:11;9.82;;;7.45;;
18657;SDS011;9458;50.942;5.074;2023-04-03T06:33:39;9.63;;;6.88;;
18657;SDS011;9458;50.942;5.074;2023-04-03T06:36:07;8.70;;;6.63;;
18657;SDS011;9458;50.942;5.074;2023-04-03T06:38:37;9.15;;;6.88;;
18657;SDS011;9458;50.942;5.074;2023-04-03T06:41:06;7.10;;;6.40;;
18657;SDS011;9458;50.942;5.074;2023-04-03T06:43:36;6.88;;;5.82;;
18657;SDS011;9458;50.942;5.074;2023-04-03T06:46:05;9.85;;;6.63;;
18657;SDS011;9458;50.942;5.074;2023-04-03T06:48:35;10.45;;;6.05;;
18657;SDS011;9458;50.942;5.074;2023-04-03T06:51:04;6.78;;;5.00;;
18657;SDS011;9458;50.942;5.074;2023-04-03T06:53:32;7.78;;;5.60;;
18657;SDS011;9458;50.942;5.074;2023-04-03T06:56:00;7.80;;;5.30;;
18657;SDS011;9458;50.942;5.074;2023-04-03T06:58:28;8.20;;;5.43;;
18657;SDS011;9458;50.942;5.074;2023-04-03T07:00:55;8.02;;;4.72;;
18657;SDS011;9458;50.942;5.074;2023-04-03T07:03:28;6.28;;;4.75;;
18657;SDS011;9458;50.942;5.074;2023-04-03T07:05:58;6.68;;;4.60;;
18657;SDS011;9458;50.942;5.074;2023-04-03T07:08:26;6.35;;;4.50;;
18657;SDS011;9458;50.942;5.074;2023-04-03T07:10:55;5.65;;;4.05;;
18657;SDS011;9458;50.942;5.074;2023-04-03T07:13:22;6.65;;;4.32;;
18657;SDS011;9458;50.942;5.074;2023-04-03T07:15:51;6.05;;;4.63;;
18657;SDS011;9458;50.942;5.074;2023-04-03T07:18:19;6.13;;;4.53;;
18657;SDS011;9458;50.942;5.074;2023-04-03T07:20:47;6.28;;;4.32;;
18657;SDS011;9458;50.942;5.074;2023-04-03T07:23:17;5.50;;;4.35;;
18657;SDS011;9458;50.942;5.074;2023-04-03T07:25:46;6.13;;;4.18;;
18657;SDS011;9458;50.942;5.074;2023-04-03T07:28:17;6.10;;;4.40;;
18657;SDS011;9458;50.942;5.074;2023-04-03T07:30:47;5.97;;;4.55;;
18657;SDS011;9458;50.942;5.074;2023-04-03T07:33:17;5.75;;;4.13;;
18657;SDS011;9458;50.942;5.074;2023-04-03T07:35:45;6.15;;;4.63;;
18657;SDS011;9458;50.942;5.074;2023-04-03T07:38:13;7.20;;;3.97;;
18657;SDS011;9458;50.942;5.074;2023-04-03T07:40:46;5.95;;;4.32;;
18657;SDS011;9458;50.942;5.074;2023-04-03T07:43:16;5.20;;;4.25;;
18657;SDS011;9458;50.942;5.074;2023-04-03T07:45:46;5.68;;;4.40;;
18657;SDS011;9458;50.942;5.074;2023-04-03T07:48:17;7.43;;;4.80;;
18657;SDS011;9458;50.942;5.074;2023-04-03T07:50:46;4.97;;;3.95;;
18657;SDS011;9458;50.942;5.074;2023-04-03T07:53:14;4.45;;;3.67;;
18657;SDS011;9458;50.942;5.074;2023-04-03T07:55:42;5.57;;;4.18;;
18657;SDS011;9458;50.942;5.074;2023-04-03T07:58:15;5.82;;;3.70;;
18657;SDS011;9458;50.942;5.074;2023-04-03T08:00:44;6.65;;;3.50;;
18657;SDS011;9458;50.942;5.074;2023-04-03T08:03:14;6.05;;;3.85;;
18657;SDS011;9458;50.942;5.074;2023-04-03T08:05:45;4.15;;;3.75;;
18657;SDS011;9458;50.942;5.074;2023-04-03T08:08:17;6.97;;;3.67;;
18657;SDS011;9458;50.942;5.074;2023-04-03T08:10:49;6.75;;;4.88;;
18657;SDS011;9458;50.942;5.074;2023-04-03T08:13:19;10.65;;;3.70;;
18657;SDS011;9458;50.942;5.074;2023-04-03T08:15:48;5.72;;;3.28;;
18657;SDS011;9458;50.942;5.074;2023-04-03T08:18:17;4.53;;;3.42;;
18657;SDS011;9458;50.942;5.074;2023-04-03T08:20:51;10.07;;;3.85;;
18657;SDS011;9458;50.942;5.074;2023-04-03T08:23:22;7.32;;;3.95;;
18657;SDS011;9458;50.942;5.074;2023-04-03T08:25:52;4.85;;;3.28;;
18657;SDS011;9458;50.942;5.074;2023-04-03T08:28:20;5.78;;;3.17;;
18657;SDS011;9458;50.942;5.074;2023-04-03T08:30:48;4.20;;;3.28;;
18657;SDS011;9458;50.942;5.074;2023-04-03T08:33:17;5.22;;;3.50;;
18657;SDS011;9458;50.942;5.074;2023-04-03T08:35:45;4.70;;;3.75;;
18657;SDS011;9458;50.942;5.074;2023-04-03T08:38:13;7.45;;;3.60;;
18657;SDS011;9458;50.942;5.074;2023-04-03T08:40:42;6.50;;;3.85;;
18657;SDS011;9458;50.942;5.074;2023-04-03T08:43:17;4.10;;;3.30;;
18657;SDS011;9458;50.942;5.074;2023-04-03T08:45:59;3.67;;;3.38;;
18657;SDS011;9458;50.942;5.074;2023-04-03T08:48:33;4.97;;;2.97;;
18657;SDS011;9458;50.942;5.074;2023-04-03T08:51:08;9.38;;;3.80;;
18657;SDS011;9458;50.942;5.074;2023-04-03T08:53:42;4.82;;;3.30;;
18657;SDS011;9458;50.942;5.074;2023-04-03T08:56:17;5.65;;;3.22;;
18657;SDS011;9458;50.942;5.074;2023-04-03T08:58:49;5.68;;;3.10;;
18657;SDS011;9458;50.942;5.074;2023-04-03T09:01:21;4.22;;;3.17;;
18657;SDS011;9458;50.942;5.074;2023-04-03T09:03:54;4.68;;;3.13;;
18657;SDS011;9458;50.942;5.074;2023-04-03T09:06:23;4.75;;;3.00;;
18657;SDS011;9458;50.942;5.074;2023-04-03T09:08:59;3.33;;;2.90;;
18657;SDS011;9458;50.942;5.074;2023-04-03T09:11:36;4.47;;;2.50;;
18657;SDS011;9458;50.942;5.074;2023-04-03T09:14:20;3.05;;;2.50;;
18657;SDS011;9458;50.942;5.074;2023-04-03T09:16:54;3.75;;;2.80;;
18657;SDS011;9458;50.942;5.074;2023-04-03T09:19:26;4.15;;;2.65;;
18657;SDS011;9458;50.942;5.074;2023-04-03T09:22:11;7.35;;;2.60;;
18657;SDS011;9458;50.942;5.074;2023-04-03T09:24:45;2.33;;;1.90;;
18657;SDS011;9458;50.942;5.074;2023-04-03T09:27:15;4.68;;;2.35;;
18657;SDS011;9458;50.942;5.074;2023-04-03T09:29:45;3.80;;;2.40;;
18657;SDS011;9458;50.942;5.074;2023-04-03T09:32:18;3.97;;;2.30;;
18657;SDS011;9458;50.942;5.074;2023-04-03T09:34:49;2.90;;;2.03;;
18657;SDS011;9458;50.942;5.074;2023-04-03T09:40:27;2.70;;;2.17;;
18657;SDS011;9458;50.942;5.074;2023-04-03T09:43:19;5.63;;;2.13;;
18657;SDS011;9458;50.942;5.074;2023-04-03T09:45:56;4.13;;;2.40;;
18657;SDS011;9458;50.942;5.074;2023-04-03T09:48:49;2.80;;;2.22;;
18657;SDS011;9458;50.942;5.074;2023-04-03T09:51:18;6.10;;;2.42;;
18657;SDS011;9458;50.942;5.074;2023-04-03T09:53:46;3.85;;;2.15;;
18657;SDS011;9458;50.942;5.074;2023-04-03T09:56:21;4.93;;;2.53;;
18657;SDS011;9458;50.942;5.074;2023-04-03T09:59:06;3.83;;;2.35;;
18657;SDS011;9458;50.942;5.074;2023-04-03T10:01:43;3.33;;;2.00;;
18657;SDS011;9458;50.942;5.074;2023-04-03T10:04:37;4.05;;;2.10;;
18657;SDS011;9458;50.942;5.074;2023-04-03T10:07:27;2.63;;;1.92;;
18657;SDS011;9458;50.942;5.074;2023-04-03T10:10:03;3.22;;;1.85;;
18657;SDS011;9458;50.942;5.074;2023-04-03T10:13:03;3.70;;;2.35;;
18657;SDS011;9458;50.942;5.074;2023-04-03T10:15:33;3.50;;;1.55;;
18657;SDS011;9458;50.942;5.074;2023-04-03T10:21:46;2.72;;;1.70;;
18657;SDS011;9458;50.942;5.074;2023-04-03T10:24:21;2.35;;;1.52;;
18657;SDS011;9458;50.942;5.074;2023-04-03T10:26:57;2.63;;;1.40;;
18657;SDS011;9458;50.942;5.074;2023-04-03T10:32:24;2.83;;;1.40;;
18657;SDS011;9458;50.942;5.074;2023-04-03T10:35:07;2.33;;;1.70;;
18657;SDS011;9458;50.942;5.074;2023-04-03T10:37:46;4.28;;;1.77;;
18657;SDS011;9458;50.942;5.074;2023-04-03T10:40:24;2.83;;;1.65;;
18657;SDS011;9458;50.942;5.074;2023-04-03T10:43:00;2.90;;;1.90;;
18657;SDS011;9458;50.942;5.074;2023-04-03T10:45:43;5.03;;;1.55;;
18657;SDS011;9458;50.942;5.074;2023-04-03T10:48:28;2.72;;;1.27;;
18657;SDS011;9458;50.942;5.074;2023-04-03T10:51:10;2.58;;;1.90;;
18657;SDS011;9458;50.942;5.074;2023-04-03T10:53:52;3.15;;;1.83;;
18657;SDS011;9458;50.942;5.074;2023-04-03T10:56:27;3.97;;;1.48;;
18657;SDS011;9458;50.942;5.074;2023-04-03T10:59:02;4.72;;;1.35;;
18657;SDS011;9458;50.942;5.074;2023-04-03T11:01:44;2.65;;;1.15;;
18657;SDS011;9458;50.942;5.074;2023-04-03T11:04:16;3.15;;;1.48;;
18657;SDS011;9458;50.942;5.074;2023-04-03T11:06:48;2.00;;;1.30;;
18657;SDS011;9458;50.942;5.074;2023-04-03T11:09:25;1.95;;;1.10;;
18657;SDS011;9458;50.942;5.074;2023-04-03T11:11:58;3.25;;;1.30;;
18657;SDS011;9458;50.942;5.074;2023-04-03T11:14:31;2.00;;;1.10;;
18657;SDS011;9458;50.942;5.074;2023-04-03T11:17:05;1.77;;;1.15;;
18657;SDS011;9458;50.942;5.074;2023-04-03T11:19:57;1.92;;;0.80;;
18657;SDS011;9458;50.942;5.074;2023-04-03T11:22:33;2.03;;;1.00;;
18657;SDS011;9458;50.942;5.074;2023-04-03T11:25:15;2.70;;;1.08;;
18657;SDS011;9458;50.942;5.074;2023-04-03T11:27:52;1.70;;;1.05;;
18657;SDS011;9458;50.942;5.074;2023-04-03T11:30:23;2.10;;;1.20;;
18657;SDS011;9458;50.942;5.074;2023-04-03T11:33:03;1.25;;;0.68;;
18657;SDS011;9458;50.942;5.074;2023-04-03T11:35:43;2.15;;;0.70;;
18657;SDS011;9458;50.942;5.074;2023-04-03T11:38:15;0.80;;;0.70;;
18657;SDS011;9458;50.942;5.074;2023-04-03T11:40:51;0.85;;;0.60;;
18657;SDS011;9458;50.942;5.074;2023-04-03T11:43:23;2.17;;;0.70;;
18657;SDS011;9458;50.942;5.074;2023-04-03T11:45:54;1.38;;;0.82;;
18657;SDS011;9458;50.942;5.074;2023-04-03T11:48:47;1.45;;;0.90;;
18657;SDS011;9458;50.942;5.074;2023-04-03T11:57:28;2.17;;;0.73;;
18657;SDS011;9458;50.942;5.074;2023-04-03T12:03:31;1.10;;;0.77;;
18657;SDS011;9458;50.942;5.074;2023-04-03T12:06:49;1.67;;;0.88;;
18657;SDS011;9458;50.942;5.074;2023-04-03T12:09:28;3.47;;;1.10;;
18657;SDS011;9458;50.942;5.074;2023-04-03T12:12:00;1.13;;;1.02;;
18657;SDS011;9458;50.942;5.074;2023-04-03T12:14:49;1.42;;;1.02;;
18657;SDS011;9458;50.942;5.074;2023-04-03T12:17:23;4.85;;;1.20;;
18657;SDS011;9458;50.942;5.074;2023-04-03T12:19:55;1.23;;;0.90;;
18657;SDS011;9458;50.942;5.074;2023-04-03T12:22:23;1.23;;;1.10;;
18657;SDS011;9458;50.942;5.074;2023-04-03T12:24:56;1.45;;;1.02;;
18657;SDS011;9458;50.942;5.074;2023-04-03T12:27:28;2.83;;;1.10;;
18657;SDS011;9458;50.942;5.074;2023-04-03T12:30:21;2.92;;;1.00;;
18657;SDS011;9458;50.942;5.074;2023-04-03T12:32:58;2.20;;;1.10;;
18657;SDS011;9458;50.942;5.074;2023-04-03T12:35:40;2.05;;;0.98;;
18657;SDS011;9458;50.942;5.074;2023-04-03T12:38:21;2.70;;;1.17;;
18657;SDS011;9458;50.942;5.074;2023-04-03T12:41:14;2.20;;;1.25;;
18657;SDS011;9458;50.942;5.074;2023-04-03T12:43:59;1.15;;;1.05;;
18657;SDS011;9458;50.942;5.074;2023-04-03T12:46:39;2.08;;;1.13;;
18657;SDS011;9458;50.942;5.074;2023-04-03T12:49:29;2.60;;;1.15;;
18657;SDS011;9458;50.942;5.074;2023-04-03T12:52:06;2.05;;;1.00;;
18657;SDS011;9458;50.942;5.074;2023-04-03T12:54:45;2.88;;;1.13;;
18657;SDS011;9458;50.942;5.074;2023-04-03T12:57:16;2.17;;;1.15;;
18657;SDS011;9458;50.942;5.074;2023-04-03T12:59:46;2.67;;;1.00;;
18657;SDS011;9458;50.942;5.074;2023-04-03T13:02:19;3.25;;;1.20;;
18657;SDS011;9458;50.942;5.074;2023-04-03T13:04:50;1.83;;;1.02;;
18657;SDS011;9458;50.942;5.074;2023-04-03T13:07:23;5.22;;;1.08;;
18657;SDS011;9458;50.942;5.074;2023-04-03T13:09:58;4.00;;;1.30;;
18657;SDS011;9458;50.942;5.074;2023-04-03T13:12:27;3.00;;;1.05;;
18657;SDS011;9458;50.942;5.074;2023-04-03T13:14:56;1.60;;;1.10;;
18657;SDS011;9458;50.942;5.074;2023-04-03T13:17:29;2.08;;;1.23;;
18657;SDS011;9458;50.942;5.074;2023-04-03T13:20:12;1.63;;;1.20;;
18657;SDS011;9458;50.942;5.074;2023-04-03T13:22:44;1.55;;;1.10;;
18657;SDS011;9458;50.942;5.074;2023-04-03T13:25:17;2.47;;;1.20;;
18657;SDS011;9458;50.942;5.074;2023-04-03T13:27:46;2.90;;;1.20;;
18657;SDS011;9458;50.942;5.074;2023-04-03T13:30:17;1.95;;;1.08;;
18657;SDS011;9458;50.942;5.074;2023-04-03T13:33:01;4.65;;;1.30;;
18657;SDS011;9458;50.942;5.074;2023-04-03T13:35:32;1.45;;;1.10;;
18657;SDS011;9458;50.942;5.074;2023-04-03T13:38:03;1.75;;;1.20;;
18657;SDS011;9458;50.942;5.074;2023-04-03T13:40:35;2.28;;;1.20;;
18657;SDS011;9458;50.942;5.074;2023-04-03T13:43:19;3.35;;;1.50;;
18657;SDS011;9458;50.942;5.074;2023-04-03T13:45:56;3.45;;;1.42;;
18657;SDS011;9458;50.942;5.074;2023-04-03T13:48:27;3.38;;;1.30;;
18657;SDS011;9458;50.942;5.074;2023-04-03T13:51:05;4.57;;;1.65;;
18657;SDS011;9458;50.942;5.074;2023-04-03T13:53:45;1.45;;;1.15;;
18657;SDS011;9458;50.942;5.074;2023-04-03T13:56:18;2.33;;;1.40;;
18657;SDS011;9458;50.942;5.074;2023-04-03T13:58:54;2.85;;;1.60;;
18657;SDS011;9458;50.942;5.074;2023-04-03T14:01:24;2.33;;;1.77;;
18657;SDS011;9458;50.942;5.074;2023-04-03T14:04:10;3.72;;;1.35;;
18657;SDS011;9458;50.942;5.074;2023-04-03T14:06:41;1.63;;;1.50;;
18657;SDS011;9458;50.942;5.074;2023-04-03T14:09:09;2.97;;;1.40;;
18657;SDS011;9458;50.942;5.074;2023-04-03T14:11:38;2.15;;;1.58;;
18657;SDS011;9458;50.942;5.074;2023-04-03T14:14:11;1.50;;;1.30;;
18657;SDS011;9458;50.942;5.074;2023-04-03T14:16:43;1.85;;;1.35;;
18657;SDS011;9458;50.942;5.074;2023-04-03T14:22:07;7.10;;;1.55;;
18657;SDS011;9458;50.942;5.074;2023-04-03T14:24:41;4.00;;;1.63;;
18657;SDS011;9458;50.942;5.074;2023-04-03T14:27:11;2.20;;;1.58;;
18657;SDS011;9458;50.942;5.074;2023-04-03T14:29:44;2.67;;;1.73;;
18657;SDS011;9458;50.942;5.074;2023-04-03T14:32:13;1.95;;;1.30;;
18657;SDS011;9458;50.942;5.074;2023-04-03T14:34:43;1.75;;;1.60;;
18657;SDS011;9458;50.942;5.074;2023-04-03T14:37:12;2.72;;;1.40;;
18657;SDS011;9458;50.942;5.074;2023-04-03T14:39:44;1.52;;;1.33;;
18657;SDS011;9458;50.942;5.074;2023-04-03T14:42:12;1.70;;;1.20;;
18657;SDS011;9458;50.942;5.074;2023-04-03T14:44:43;2.95;;;1.60;;
18657;SDS011;9458;50.942;5.074;2023-04-03T14:47:11;2.53;;;1.95;;
18657;SDS011;9458;50.942;5.074;2023-04-03T14:49:45;3.30;;;1.98;;
18657;SDS011;9458;50.942;5.074;2023-04-03T14:52:16;6.07;;;2.20;;
18657;SDS011;9458;50.942;5.074;2023-04-03T14:54:47;4.60;;;1.52;;
18657;SDS011;9458;50.942;5.074;2023-04-03T14:57:16;5.90;;;2.13;;
18657;SDS011;9458;50.942;5.074;2023-04-03T14:59:45;2.88;;;1.85;;
18657;SDS011;9458;50.942;5.074;2023-04-03T15:02:22;2.10;;;1.70;;
18657;SDS011;9458;50.942;5.074;2023-04-03T15:04:56;2.83;;;1.67;;
18657;SDS011;9458;50.942;5.074;2023-04-03T15:07:27;3.70;;;1.70;;
18657;SDS011;9458;50.942;5.074;2023-04-03T15:09:57;4.03;;;1.73;;
18657;SDS011;9458;50.942;5.074;2023-04-03T15:12:26;3.28;;;1.80;;
18657;SDS011;9458;50.942;5.074;2023-04-03T15:14:55;2.47;;;1.70;;
18657;SDS011;9458;50.942;5.074;2023-04-03T15:17:23;3.08;;;1.70;;
18657;SDS011;9458;50.942;5.074;2023-04-03T15:19:52;3.58;;;1.75;;
18657;SDS011;9458;50.942;5.074;2023-04-03T15:22:22;4.32;;;1.77;;
18657;SDS011;9458;50.942;5.074;2023-04-03T15:24:50;2.50;;;1.65;;
18657;SDS011;9458;50.942;5.074;2023-04-03T15:27:18;2.05;;;1.40;;
18657;SDS011;9458;50.942;5.074;2023-04-03T15:29:47;2.70;;;1.58;;
18657;SDS011;9458;50.942;5.074;2023-04-03T15:32:19;2.90;;;1.50;;
18657;SDS011;9458;50.942;5.074;2023-04-03T15:34:50;4.13;;;1.50;;
18657;SDS011;9458;50.942;5.074;2023-04-03T15:37:18;2.47;;;1.73;;
18657;SDS011;9458;50.942;5.074;2023-04-03T15:39:48;4.80;;;1.77;;
18657;SDS011;9458;50.942;5.074;2023-04-03T15:42:16;4.20;;;1.98;;
18657;SDS011;9458;50.942;5.074;2023-04-03T15:44:45;5.55;;;2.00;;
18657;SDS011;9458;50.942;5.074;2023-04-03T15:47:13;4.65;;;2.20;;
18657;SDS011;9458;50.942;5.074;2023-04-03T15:49:42;3.42;;;1.70;;
18657;SDS011;9458;50.942;5.074;2023-04-03T15:52:10;2.47;;;1.67;;
18657;SDS011;9458;50.942;5.074;2023-04-03T15:54:38;2.88;;;1.60;;